Time;durP1;ratioP1;P1;durP2;ratioP2;P2;SDS_P1;SDS_P2;PMS_P1;PMS_P2;Temp;Humidity;BMP_temperature;BMP_pressure;BME280_temperature;BME280_humidity;BME280_pressure;Samples;Min_cycle;Max_cycle;Signal;HPM_P1;HPM_P2
2022/07/09 00:00:35;;;;;;;12.20;4.95;;;17.00;99.90;;;;;;5060723;28;20040;-74
2022/07/09 00:03:01;;;;;;;11.10;4.20;;;16.70;99.90;;;;;;5042751;28;20048;-74
2022/07/09 00:05:26;;;;;;;9.02;4.35;;;16.80;99.90;;;;;;5060871;28;20512;-74
2022/07/09 00:07:52;;;;;;;12.52;4.50;;;16.70;99.90;;;;;;5059619;28;20500;-74
2022/07/09 00:10:17;;;;;;;16.92;5.38;;;17.30;99.90;;;;;;5053484;28;20048;-75
2022/07/09 00:12:43;;;;;;;12.07;4.55;;;16.70;99.90;;;;;;5060325;28;20071;-74
2022/07/09 00:15:09;;;;;;;12.68;4.25;;;17.30;99.90;;;;;;5051914;28;20044;-74
2022/07/09 00:17:35;;;;;;;13.52;4.60;;;16.70;99.90;;;;;;5060582;28;20041;-74
2022/07/09 00:20:04;;;;;;;13.77;4.90;;;16.70;99.90;;;;;;5059912;28;20506;-74
2022/07/09 00:22:33;;;;;;;13.30;4.32;;;16.70;99.90;;;;;;5028005;28;20051;-74
2022/07/09 00:24:59;;;;;;;13.07;4.65;;;16.60;99.90;;;;;;5068501;28;20048;-76
2022/07/09 00:27:24;;;;;;;15.45;5.78;;;16.60;99.90;;;;;;5060500;28;20079;-75
2022/07/09 00:29:50;;;;;;;15.60;4.88;;;16.60;99.90;;;;;;5049351;28;20130;-73
2022/07/09 00:32:16;;;;;;;10.68;4.65;;;16.60;99.90;;;;;;5067788;28;20044;-75
2022/07/09 00:34:42;;;;;;;11.80;4.45;;;16.60;99.90;;;;;;5056697;28;20068;-74
2022/07/09 00:37:08;;;;;;;12.57;4.22;;;16.50;99.90;;;;;;5057831;28;20395;-75
2022/07/09 00:39:34;;;;;;;11.20;5.55;;;17.30;99.90;;;;;;5055327;28;20098;-75
2022/07/09 00:42:07;;;;;;;10.18;5.13;;;16.50;99.90;;;;;;5021206;28;20132;-75
2022/07/09 00:44:33;;;;;;;10.23;5.20;;;16.60;99.90;;;;;;5056446;28;20073;-75
2022/07/09 00:46:59;;;;;;;20.73;6.03;;;16.30;99.90;;;;;;5054535;28;20051;-75
2022/07/09 00:49:29;;;;;;;13.95;5.63;;;16.40;99.90;;;;;;5057875;28;20037;-76
2022/07/09 00:51:56;;;;;;;15.75;4.90;;;16.40;99.90;;;;;;5055968;28;20094;-75
2022/07/09 00:54:23;;;;;;;14.20;5.40;;;16.40;99.90;;;;;;5042243;28;20124;-73
2022/07/09 00:56:50;;;;;;;10.75;4.88;;;16.40;99.90;;;;;;5061412;28;20044;-74
2022/07/09 00:59:17;;;;;;;13.20;6.20;;;16.40;99.90;;;;;;5049683;28;20048;-74
2022/07/09 01:01:43;;;;;;;10.35;5.47;;;16.50;99.90;;;;;;5063240;28;20037;-74
2022/07/09 01:04:09;;;;;;;15.65;5.40;;;16.90;99.90;;;;;;5053515;28;20043;-74
2022/07/09 01:06:34;;;;;;;13.82;5.90;;;16.30;99.90;;;;;;5064863;28;20076;-74
2022/07/09 01:09:02;;;;;;;11.90;4.53;;;16.40;99.90;;;;;;5056183;28;20621;-74
2022/07/09 01:11:28;;;;;;;13.07;5.00;;;16.40;99.90;;;;;;5041422;28;20456;-75
2022/07/09 01:13:53;;;;;;;15.25;7.05;;;16.40;99.90;;;;;;5067738;28;20116;-74
2022/07/09 01:16:20;;;;;;;10.05;5.82;;;16.40;99.90;;;;;;5067622;28;20546;-74
2022/07/09 01:18:47;;;;;;;11.82;5.63;;;16.30;99.90;;;;;;5059542;28;20476;-75
2022/07/09 01:21:15;;;;;;;14.43;6.03;;;16.40;99.90;;;;;;5065138;28;20048;-75
2022/07/09 01:23:42;;;;;;;20.50;5.68;;;16.40;99.90;;;;;;5053845;28;20470;-75
2022/07/09 01:26:08;;;;;;;10.95;5.85;;;16.30;99.90;;;;;;5033922;28;20135;-75
2022/07/09 01:28:33;;;;;;;14.18;6.03;;;16.30;99.90;;;;;;5072164;28;20408;-75
2022/07/09 01:31:02;;;;;;;13.52;5.43;;;17.50;99.90;;;;;;5071773;28;20119;-74
2022/07/09 01:33:28;;;;;;;14.15;5.47;;;16.30;99.90;;;;;;5053299;28;20071;-74
2022/07/09 01:35:53;;;;;;;14.73;5.28;;;16.30;99.90;;;;;;5071879;28;20130;-75
2022/07/09 01:38:19;;;;;;;18.73;5.85;;;16.30;99.90;;;;;;5071769;28;20070;-74
2022/07/09 01:40:44;;;;;;;12.68;6.10;;;16.40;99.90;;;;;;5070359;28;20036;-74
2022/07/09 01:43:10;;;;;;;11.98;6.10;;;16.40;99.90;;;;;;5054000;28;20052;-74
2022/07/09 01:45:36;;;;;;;14.93;6.00;;;16.40;99.90;;;;;;5071480;28;20038;-73
2022/07/09 01:48:01;;;;;;;15.35;7.45;;;16.40;99.90;;;;;;5064091;28;20066;-73
2022/07/09 01:50:27;;;;;;;16.05;7.15;;;16.40;99.90;;;;;;5069709;28;20041;-73
2022/07/09 01:52:53;;;;;;;14.38;7.20;;;17.00;99.90;;;;;;5071601;28;20127;-74
2022/07/09 01:55:18;;;;;;;13.13;7.10;;;17.40;99.90;;;;;;5071050;28;20052;-74
2022/07/09 01:57:44;;;;;;;15.70;7.22;;;16.40;99.90;;;;;;5071211;28;20036;-74
2022/07/09 02:00:11;;;;;;;13.80;6.68;;;16.40;99.90;;;;;;5071356;28;20052;-75
2022/07/09 02:02:36;;;;;;;18.17;6.97;;;16.40;99.90;;;;;;5036483;28;20075;-75
2022/07/09 02:05:03;;;;;;;9.02;5.78;;;16.40;99.90;;;;;;5053763;28;20072;-76
2022/07/09 02:07:29;;;;;;;15.20;6.88;;;16.30;99.90;;;;;;5050688;28;20115;-75
2022/07/09 02:09:54;;;;;;;15.38;6.80;;;17.30;99.90;;;;;;5052860;28;20648;-75
2022/07/09 02:12:23;;;;;;;12.75;6.90;;;16.30;99.90;;;;;;5050778;28;20045;-75
2022/07/09 02:14:49;;;;;;;14.02;6.88;;;17.00;99.90;;;;;;5070243;28;20086;-74
2022/07/09 02:17:15;;;;;;;11.13;6.32;;;16.30;99.90;;;;;;5071056;28;20044;-74
2022/07/09 02:19:40;;;;;;;17.27;6.78;;;16.30;99.90;;;;;;5069213;28;20090;-74
2022/07/09 02:22:06;;;;;;;14.63;6.88;;;16.30;99.90;;;;;;5070771;28;20044;-74
2022/07/09 02:24:32;;;;;;;13.45;6.68;;;16.20;99.90;;;;;;5068291;28;20040;-74
2022/07/09 02:26:58;;;;;;;17.80;6.15;;;16.20;99.90;;;;;;5064474;28;20055;-74
2022/07/09 02:29:24;;;;;;;16.23;7.18;;;16.30;99.90;;;;;;5052143;28;20040;-74
2022/07/09 02:31:49;;;;;;;14.70;6.00;;;16.30;99.90;;;;;;5050657;28;20078;-73
2022/07/09 02:34:15;;;;;;;11.18;6.30;;;16.30;99.90;;;;;;5044961;28;20055;-75
2022/07/09 02:36:41;;;;;;;9.98;6.10;;;16.40;99.90;;;;;;5060872;28;20036;-74
2022/07/09 02:39:06;;;;;;;10.75;6.45;;;16.30;99.90;;;;;;5069361;28;20044;-75
2022/07/09 02:41:32;;;;;;;14.85;6.85;;;16.30;99.90;;;;;;5056376;28;20053;-75
2022/07/09 02:43:57;;;;;;;11.48;5.90;;;16.30;99.90;;;;;;5061540;28;20045;-75
2022/07/09 02:46:23;;;;;;;14.75;6.07;;;16.20;99.90;;;;;;5020673;28;20045;-75
2022/07/09 02:48:49;;;;;;;13.60;5.90;;;16.30;99.90;;;;;;5056135;28;20102;-74
2022/07/09 02:51:14;;;;;;;10.02;5.40;;;16.20;99.90;;;;;;5054059;28;20517;-75
2022/07/09 02:53:40;;;;;;;13.02;6.13;;;16.20;99.90;;;;;;5052284;28;20067;-75
2022/07/09 02:56:06;;;;;;;10.93;6.20;;;16.20;99.90;;;;;;5062279;28;20550;-75
2022/07/09 02:58:32;;;;;;;13.70;5.60;;;16.20;99.90;;;;;;5055449;28;20128;-75
2022/07/09 03:00:57;;;;;;;13.57;5.47;;;16.90;99.90;;;;;;5053168;28;20127;-77
2022/07/09 03:03:23;;;;;;;12.20;5.65;;;16.20;99.90;;;;;;5052301;28;20049;-75
2022/07/09 03:05:49;;;;;;;8.32;5.03;;;16.20;99.90;;;;;;5034565;28;20033;-75
2022/07/09 03:08:15;;;;;;;10.23;4.78;;;16.20;99.90;;;;;;5054512;28;20071;-75
2022/07/09 03:10:40;;;;;;;6.68;4.68;;;16.20;99.90;;;;;;5050531;28;20059;-75
2022/07/09 03:13:06;;;;;;;13.15;5.40;;;16.20;99.90;;;;;;5062580;28;20040;-75
2022/07/09 03:15:31;;;;;;;9.15;5.22;;;16.20;99.90;;;;;;5056029;28;20033;-76
2022/07/09 03:17:57;;;;;;;12.95;5.80;;;16.20;99.90;;;;;;5060503;28;20124;-75
2022/07/09 03:20:23;;;;;;;9.77;5.18;;;17.20;99.90;;;;;;5054723;28;20158;-76
2022/07/09 03:22:48;;;;;;;12.68;5.93;;;16.20;99.90;;;;;;5061411;28;20441;-75
2022/07/09 03:25:14;;;;;;;9.02;4.90;;;16.80;99.90;;;;;;5054482;28;20094;-74
2022/07/09 03:27:40;;;;;;;15.77;6.57;;;16.10;99.90;;;;;;5060696;28;20191;-75
2022/07/09 03:30:12;;;;;;;9.05;5.38;;;16.10;99.90;;;;;;5046062;28;20045;-76
2022/07/09 03:32:38;;;;;;;10.35;5.13;;;16.10;99.90;;;;;;5066891;28;20533;-74
2022/07/09 03:35:04;;;;;;;11.43;6.38;;;16.10;99.90;;;;;;5059181;28;20150;-74
2022/07/09 03:37:29;;;;;;;12.15;5.38;;;16.10;99.90;;;;;;5067542;28;20048;-73
2022/07/09 03:39:56;;;;;;;7.68;5.30;;;16.10;99.90;;;;;;5062159;28;20312;-74
2022/07/09 03:42:21;;;;;;;9.23;5.68;;;17.30;99.90;;;;;;5069684;28;20056;-75
2022/07/09 03:44:47;;;;;;;9.23;5.57;;;16.90;99.90;;;;;;5051625;28;20381;-74
2022/07/09 03:47:13;;;;;;;9.55;5.43;;;16.10;99.90;;;;;;5069250;28;20041;-74
2022/07/09 03:49:38;;;;;;;10.95;6.18;;;16.40;99.90;;;;;;5068290;28;20044;-76
2022/07/09 03:52:04;;;;;;;10.63;5.60;;;16.00;99.90;;;;;;5069720;28;20049;-76
2022/07/09 03:54:33;;;;;;;9.50;5.20;;;16.00;99.90;;;;;;5069209;28;20043;-77
2022/07/09 03:56:58;;;;;;;11.57;5.10;;;16.00;99.90;;;;;;5069008;28;20511;-77
2022/07/09 03:59:24;;;;;;;12.55;6.28;;;16.00;99.90;;;;;;5051398;28;20036;-76
2022/07/09 04:01:50;;;;;;;10.23;5.03;;;16.00;99.90;;;;;;5068727;28;20043;-76
2022/07/09 04:04:16;;;;;;;13.50;5.93;;;16.00;99.90;;;;;;5069861;28;20518;-76
2022/07/09 04:06:41;;;;;;;12.30;5.70;;;16.00;99.90;;;;;;5066425;28;20125;-74
2022/07/09 04:09:07;;;;;;;10.50;5.35;;;16.20;99.90;;;;;;5063220;28;20525;-76
2022/07/09 04:11:33;;;;;;;14.68;5.88;;;16.00;99.90;;;;;;5069830;28;20024;-76
2022/07/09 04:14:00;;;;;;;9.23;4.68;;;16.30;99.90;;;;;;5050308;28;20044;-75
2022/07/09 04:16:25;;;;;;;9.32;5.55;;;16.40;99.90;;;;;;5051352;28;20040;-74
2022/07/09 04:18:51;;;;;;;10.73;5.65;;;16.00;99.90;;;;;;5050712;28;20561;-74
2022/07/09 04:21:17;;;;;;;9.20;5.20;;;16.00;99.90;;;;;;5048364;28;20044;-78
2022/07/09 04:23:43;;;;;;;9.27;5.22;;;16.40;99.90;;;;;;5068606;28;20131;-74
2022/07/09 04:26:09;;;;;;;8.55;4.55;;;16.20;99.90;;;;;;5069371;28;20125;-75
2022/07/09 04:28:37;;;;;;;8.98;4.63;;;16.40;99.90;;;;;;5069485;28;20514;-74
2022/07/09 04:31:04;;;;;;;9.00;5.22;;;16.60;99.90;;;;;;5068962;28;20041;-75
2022/07/09 04:33:29;;;;;;;9.82;4.85;;;16.10;99.90;;;;;;5061581;28;20056;-75
2022/07/09 04:35:55;;;;;;;14.40;5.47;;;16.20;99.90;;;;;;5056175;28;20040;-75
2022/07/09 04:38:21;;;;;;;7.15;4.72;;;16.10;99.90;;;;;;5056924;28;20053;-75
2022/07/09 04:40:47;;;;;;;11.18;4.50;;;16.10;99.90;;;;;;5053389;28;20041;-74
2022/07/09 04:43:12;;;;;;;12.60;4.60;;;16.10;99.90;;;;;;5056628;28;20053;-75
2022/07/09 04:45:40;;;;;;;12.85;4.35;;;16.20;99.90;;;;;;5049251;28;20127;-74
2022/07/09 04:48:06;;;;;;;7.32;4.60;;;16.20;99.90;;;;;;5050678;28;20148;-75
2022/07/09 04:50:31;;;;;;;9.60;4.50;;;16.70;99.90;;;;;;5060441;28;20045;-75
2022/07/09 04:52:57;;;;;;;7.65;4.75;;;16.20;99.90;;;;;;5060829;28;20052;-75
2022/07/09 04:55:23;;;;;;;7.45;4.47;;;16.20;99.90;;;;;;5059605;28;20111;-75
2022/07/09 04:57:49;;;;;;;10.15;4.53;;;16.20;99.90;;;;;;5056044;28;20487;-76
2022/07/09 05:00:15;;;;;;;9.90;4.82;;;16.30;99.90;;;;;;5057054;28;20041;-76
2022/07/09 05:02:42;;;;;;;8.02;4.20;;;16.20;99.90;;;;;;5039961;28;20109;-75
2022/07/09 05:05:09;;;;;;;12.38;4.50;;;17.00;99.90;;;;;;5050221;28;20063;-76
2022/07/09 05:07:35;;;;;;;9.27;5.03;;;16.30;99.90;;;;;;5060929;28;20045;-75
2022/07/09 05:10:02;;;;;;;10.10;4.72;;;16.30;99.90;;;;;;5043074;28;20036;-75
2022/07/09 05:12:28;;;;;;;10.05;4.75;;;16.40;99.90;;;;;;5050079;28;20064;-75
2022/07/09 05:14:55;;;;;;;9.95;4.53;;;16.40;99.90;;;;;;5051923;28;20055;-74
2022/07/09 05:17:21;;;;;;;7.57;4.30;;;16.40;99.90;;;;;;5062766;28;20048;-75
2022/07/09 05:19:46;;;;;;;7.70;4.60;;;16.50;99.90;;;;;;5067803;28;20033;-76
2022/07/09 05:22:12;;;;;;;9.70;4.78;;;17.30;99.90;;;;;;5068368;28;20091;-76
2022/07/09 05:24:38;;;;;;;8.93;5.10;;;16.50;99.90;;;;;;5049243;28;20044;-77
2022/07/09 05:27:04;;;;;;;8.73;4.53;;;16.50;99.90;;;;;;5061198;28;20079;-74
2022/07/09 05:29:30;;;;;;;12.20;4.43;;;16.60;99.90;;;;;;5065263;28;20118;-76
2022/07/09 05:31:57;;;;;;;7.55;4.93;;;16.60;99.90;;;;;;5045060;28;20130;-76
2022/07/09 05:34:23;;;;;;;8.88;4.32;;;16.60;99.90;;;;;;5050376;28;20090;-76
2022/07/09 05:36:51;;;;;;;7.70;4.40;;;17.60;99.90;;;;;;5059135;28;20037;-76
2022/07/09 05:39:18;;;;;;;7.63;4.28;;;16.60;99.90;;;;;;5020011;28;20048;-76
2022/07/09 05:41:44;;;;;;;8.38;3.60;;;16.60;99.90;;;;;;5062291;28;20057;-76
2022/07/09 05:44:10;;;;;;;7.30;3.85;;;17.60;99.90;;;;;;5055414;28;20045;-76
2022/07/09 05:46:36;;;;;;;3.60;3.30;;;16.60;99.90;;;;;;5056068;28;20124;-75
2022/07/09 05:49:02;;;;;;;9.68;3.88;;;16.70;99.90;;;;;;5059352;28;20087;-76
2022/07/09 05:51:28;;;;;;;9.52;4.25;;;16.70;99.90;;;;;;5036640;28;20041;-75
2022/07/09 05:53:54;;;;;;;6.57;3.72;;;16.70;99.90;;;;;;5048390;28;20482;-75
2022/07/09 05:56:20;;;;;;;7.10;3.97;;;16.70;99.90;;;;;;5055456;28;20048;-75
2022/07/09 05:58:46;;;;;;;7.10;3.90;;;16.80;99.90;;;;;;5065281;28;20650;-75
2022/07/09 06:01:13;;;;;;;6.60;3.50;;;16.60;99.90;;;;;;5054854;28;20269;-74
2022/07/09 06:03:42;;;;;;;7.38;4.47;;;16.80;99.90;;;;;;5056902;28;20048;-74
2022/07/09 06:06:08;;;;;;;5.88;3.47;;;17.10;99.90;;;;;;5050739;28;20449;-74
2022/07/09 06:08:34;;;;;;;6.38;3.15;;;18.10;99.90;;;;;;5060030;28;20066;-77
2022/07/09 06:11:00;;;;;;;8.77;3.78;;;16.80;99.90;;;;;;5060758;28;20108;-75
2022/07/09 06:13:26;;;;;;;5.90;3.08;;;16.90;99.90;;;;;;5068703;28;20079;-76
2022/07/09 06:15:52;;;;;;;6.68;2.88;;;16.90;99.90;;;;;;5070796;28;20380;-75
2022/07/09 06:18:18;;;;;;;5.78;2.92;;;16.90;99.90;;;;;;5071723;28;20040;-75
2022/07/09 06:20:45;;;;;;;6.90;3.33;;;16.90;99.90;;;;;;5070223;28;20032;-75
2022/07/09 06:23:11;;;;;;;9.93;3.13;;;17.80;99.90;;;;;;5071354;28;20388;-75
2022/07/09 06:25:37;;;;;;;6.07;3.20;;;17.10;99.90;;;;;;5053522;28;20037;-76
2022/07/09 06:28:03;;;;;;;5.15;2.70;;;17.20;99.90;;;;;;5070677;28;20126;-75
2022/07/09 06:30:36;;;;;;;9.05;2.75;;;17.00;99.90;;;;;;5069208;28;20036;-75
2022/07/09 06:33:02;;;;;;;7.28;5.63;;;17.00;99.90;;;;;;5046113;28;20041;-74
2022/07/09 06:35:28;;;;;;;7.88;4.30;;;17.10;99.90;;;;;;5062347;28;20383;-74
2022/07/09 06:37:54;;;;;;;7.97;2.95;;;17.10;99.90;;;;;;5060094;28;20082;-75
2022/07/09 06:40:19;;;;;;;5.50;2.72;;;17.10;99.90;;;;;;5056751;28;20453;-75
2022/07/09 06:42:45;;;;;;;6.10;2.60;;;18.00;99.90;;;;;;5039213;28;20312;-75
2022/07/09 06:45:11;;;;;;;11.02;2.53;;;17.20;99.90;;;;;;5035926;28;20045;-75
2022/07/09 06:47:37;;;;;;;4.03;2.67;;;18.50;99.90;;;;;;5041430;28;20044;-75
2022/07/09 06:50:03;;;;;;;9.48;2.47;;;18.20;99.90;;;;;;5033398;28;20048;-76
2022/07/09 06:52:28;;;;;;;11.30;2.42;;;17.20;99.90;;;;;;5038596;28;20049;-76
2022/07/09 06:54:54;;;;;;;10.07;2.78;;;17.30;99.90;;;;;;5040606;28;20048;-74
2022/07/09 06:57:20;;;;;;;5.38;1.80;;;17.90;99.90;;;;;;5039017;28;20048;-75
2022/07/09 06:59:46;;;;;;;9.27;6.50;;;17.30;99.90;;;;;;5041076;28;20041;-75
2022/07/09 07:02:12;;;;;;;9.45;6.43;;;17.30;99.90;;;;;;5036974;28;20041;-75
2022/07/09 07:04:38;;;;;;;5.60;2.30;;;17.30;99.90;;;;;;5041793;28;20544;-76
2022/07/09 07:07:04;;;;;;;8.02;2.05;;;17.30;99.90;;;;;;5041626;28;20124;-76
2022/07/09 07:09:30;;;;;;;5.85;2.17;;;17.30;99.90;;;;;;5040708;28;20041;-76
2022/07/09 07:11:57;;;;;;;6.93;2.00;;;17.40;99.90;;;;;;5039239;28;20183;-76
2022/07/09 07:14:23;;;;;;;5.28;2.17;;;17.40;99.90;;;;;;5039008;28;20509;-76
2022/07/09 07:16:48;;;;;;;6.00;2.00;;;17.40;99.90;;;;;;5040116;28;20127;-76
2022/07/09 07:19:18;;;;;;;2.75;1.67;;;17.40;99.90;;;;;;5036975;28;20041;-73
2022/07/09 07:21:44;;;;;;;5.57;1.77;;;17.40;99.90;;;;;;5041001;28;20432;-76
2022/07/09 07:24:09;;;;;;;3.53;1.52;;;17.60;99.90;;;;;;5039676;28;20037;-75
2022/07/09 07:26:35;;;;;;;11.02;1.85;;;17.50;99.90;;;;;;5050443;28;20079;-77
2022/07/09 07:29:01;;;;;;;4.40;1.52;;;17.50;99.90;;;;;;5047095;28;20052;-75
2022/07/09 07:31:27;;;;;;;9.18;2.05;;;17.60;99.90;;;;;;5050636;28;20029;-76
2022/07/09 07:33:55;;;;;;;3.10;1.20;;;18.70;99.90;;;;;;5039681;28;20466;-76
2022/07/09 07:36:26;;;;;;;7.53;1.88;;;18.40;99.90;;;;;;5035646;28;20059;-76
2022/07/09 07:38:59;;;;;;;7.57;2.25;;;17.70;99.90;;;;;;5037998;28;20040;-77
2022/07/09 07:41:25;;;;;;;10.17;2.00;;;18.20;99.90;;;;;;5039405;28;20038;-76
2022/07/09 07:43:51;;;;;;;3.83;1.55;;;17.80;99.90;;;;;;5060440;28;20079;-77
2022/07/09 07:46:17;;;;;;;3.65;1.73;;;17.80;99.90;;;;;;5058859;28;20428;-74
2022/07/09 07:48:42;;;;;;;5.10;1.50;;;17.90;99.90;;;;;;5047731;28;20458;-74
2022/07/09 07:51:09;;;;;;;5.47;1.45;;;17.90;99.90;;;;;;5053067;28;20037;-75
2022/07/09 07:53:35;;;;;;;7.03;1.30;;;17.90;99.90;;;;;;5058018;28;20040;-75
2022/07/09 07:56:04;;;;;;;5.20;1.30;;;17.90;99.90;;;;;;5057737;28;20130;-75
2022/07/09 07:58:30;;;;;;;4.78;1.33;;;17.90;99.90;;;;;;5062966;28;20049;-77
2022/07/09 08:00:59;;;;;;;4.20;1.25;;;17.90;99.90;;;;;;5059564;28;20044;-79
2022/07/09 08:03:25;;;;;;;1.85;0.90;;;17.90;99.90;;;;;;5053358;28;20119;-77
2022/07/09 08:05:51;;;;;;;5.22;1.73;;;18.00;99.90;;;;;;5057792;28;20433;-76
2022/07/09 08:08:20;;;;;;;4.13;1.20;;;18.00;99.90;;;;;;5057486;28;20487;-78
2022/07/09 08:10:48;;;;;;;3.80;0.90;;;19.20;99.90;;;;;;5047703;28;20044;-78
2022/07/09 08:13:14;;;;;;;3.45;1.02;;;18.60;99.90;;;;;;5043217;28;20480;-78
2022/07/09 08:15:40;;;;;;;8.70;1.55;;;18.00;99.90;;;;;;5061681;28;20562;-77
2022/07/09 08:18:08;;;;;;;9.15;0.90;;;17.90;99.90;;;;;;5060077;28;20139;-76
2022/07/09 08:20:36;;;;;;;7.50;1.00;;;18.00;99.90;;;;;;5057789;28;20281;-77
2022/07/09 08:23:02;;;;;;;6.10;1.52;;;18.80;99.90;;;;;;5033143;28;20091;-75
2022/07/09 08:25:28;;;;;;;5.80;1.48;;;19.30;99.90;;;;;;5063335;28;20467;-78
2022/07/09 08:27:55;;;;;;;5.85;2.30;;;18.30;99.90;;;;;;5048391;28;20071;-77
2022/07/09 08:30:23;;;;;;;10.57;1.50;;;19.10;99.90;;;;;;5068973;28;20124;-78
2022/07/09 08:32:49;;;;;;;7.80;1.25;;;18.30;99.90;;;;;;5049580;28;20037;-75
2022/07/09 08:35:14;;;;;;;7.45;1.30;;;17.50;99.90;;;;;;5061325;28;20321;-78
2022/07/09 08:37:40;;;;;;;4.97;1.33;;;18.40;99.90;;;;;;5053809;28;20041;-77
2022/07/09 08:40:07;;;;;;;4.05;1.30;;;18.40;99.90;;;;;;5058980;28;20072;-77
2022/07/09 08:42:33;;;;;;;7.15;1.50;;;18.40;99.90;;;;;;5042831;28;20106;-79
2022/07/09 08:44:59;;;;;;;4.38;2.00;;;18.40;99.90;;;;;;5068410;28;20040;-76
2022/07/09 08:47:25;;;;;;;5.38;1.55;;;18.60;99.90;;;;;;5059631;28;20036;-76
2022/07/09 08:49:56;;;;;;;4.60;1.20;;;18.30;99.90;;;;;;5027252;28;20091;-77
2022/07/09 08:52:23;;;;;;;7.85;1.58;;;18.30;99.90;;;;;;5060151;28;20044;-76
2022/07/09 08:54:48;;;;;;;7.43;1.50;;;18.40;99.90;;;;;;5058535;28;20032;-77
2022/07/09 08:57:14;;;;;;;3.65;0.95;;;18.70;99.90;;;;;;5044061;28;20041;-76
2022/07/09 08:59:40;;;;;;;8.52;1.50;;;18.50;99.90;;;;;;5067940;28;20107;-77
2022/07/09 09:02:08;;;;;;;10.02;1.75;;;18.60;99.90;;;;;;5067858;28;20518;-77
2022/07/09 09:04:34;;;;;;;6.90;1.52;;;18.80;99.90;;;;;;5069177;28;20080;-76
2022/07/09 09:07:17;;;;;;;6.97;1.17;;;18.60;99.90;;;;;;5068974;28;20036;-76
2022/07/09 09:09:43;;;;;;;6.47;0.98;;;18.70;99.90;;;;;;5067505;28;20108;-77
2022/07/09 09:12:09;;;;;;;4.78;1.20;;;18.70;99.90;;;;;;5068651;28;20143;-76
2022/07/09 09:14:35;;;;;;;4.28;1.25;;;18.20;99.90;;;;;;5057557;28;20395;-77
2022/07/09 09:17:17;;;;;;;3.22;0.88;;;18.80;99.90;;;;;;5059745;28;20056;-77
2022/07/09 09:19:43;;;;;;;6.35;0.90;;;18.90;99.90;;;;;;5067587;28;20434;-76
2022/07/09 09:22:09;;;;;;;3.97;0.95;;;19.10;99.90;;;;;;5066563;28;20098;-74
2022/07/09 09:24:37;;;;;;;4.28;1.20;;;19.00;99.90;;;;;;5050820;28;20123;-75
2022/07/09 09:27:03;;;;;;;6.32;1.52;;;19.00;99.90;;;;;;5067882;28;20500;-76
2022/07/09 09:29:29;;;;;;;4.13;1.27;;;19.00;99.90;;;;;;5067498;28;20067;-75
2022/07/09 09:31:55;;;;;;;2.50;0.75;;;18.90;99.90;;;;;;5049795;28;20036;-75
2022/07/09 09:34:23;;;;;;;7.47;1.08;;;18.90;99.90;;;;;;5042284;28;20097;-75
2022/07/09 09:36:54;;;;;;;3.95;1.20;;;19.00;99.90;;;;;;5060826;28;20060;-76
2022/07/09 09:39:21;;;;;;;7.90;1.45;;;19.00;99.90;;;;;;5042056;28;20052;-76
2022/07/09 09:41:50;;;;;;;7.18;1.17;;;18.90;99.90;;;;;;5059297;28;20579;-76
2022/07/09 09:44:23;;;;;;;6.05;1.70;;;20.00;99.90;;;;;;5065118;28;20057;-75
2022/07/09 09:46:49;;;;;;;8.10;2.40;;;19.00;99.90;;;;;;5045100;28;20052;-75
2022/07/09 09:49:15;;;;;;;3.95;1.55;;;19.10;99.90;;;;;;5059685;28;20044;-75
2022/07/09 09:51:47;;;;;;;8.25;1.52;;;18.90;99.90;;;;;;5041540;28;20079;-76
2022/07/09 09:54:14;;;;;;;8.93;1.70;;;18.90;99.90;;;;;;5062822;28;20132;-76
2022/07/09 09:56:40;;;;;;;8.05;1.48;;;18.90;99.90;;;;;;5059740;28;20415;-76
2022/07/09 09:59:06;;;;;;;9.82;2.25;;;19.00;99.90;;;;;;5068218;28;20476;-75
2022/07/09 10:01:33;;;;;;;5.25;1.20;;;19.80;99.90;;;;;;5046922;28;20061;-75
2022/07/09 10:03:59;;;;;;;4.68;1.20;;;19.10;99.90;;;;;;5063447;28;20049;-75
2022/07/09 10:06:26;;;;;;;6.72;1.13;;;19.20;99.90;;;;;;5060269;28;20073;-75
2022/07/09 10:08:52;;;;;;;3.75;1.08;;;19.20;99.90;;;;;;5059673;28;20040;-75
2022/07/09 10:11:22;;;;;;;4.30;1.02;;;19.20;99.90;;;;;;5068707;28;20455;-73
2022/07/09 10:13:52;;;;;;;7.03;1.13;;;19.20;99.90;;;;;;5048609;28;20040;-76
2022/07/09 10:16:18;;;;;;;8.07;1.25;;;19.20;99.90;;;;;;5071444;28;20052;-75
2022/07/09 10:18:52;;;;;;;6.38;1.48;;;19.10;99.90;;;;;;5065794;28;20482;-75
2022/07/09 10:21:17;;;;;;;4.75;1.50;;;19.30;99.90;;;;;;5071810;28;20523;-74
2022/07/09 10:23:53;;;;;;;4.47;1.27;;;19.20;99.90;;;;;;5070730;28;20083;-76
2022/07/09 10:26:18;;;;;;;10.80;1.85;;;19.20;99.90;;;;;;5070713;28;20037;-75
2022/07/09 10:28:44;;;;;;;6.20;1.33;;;18.60;99.90;;;;;;5070778;28;20028;-75
2022/07/09 10:31:12;;;;;;;4.93;1.05;;;19.30;99.90;;;;;;5071141;28;20048;-74
2022/07/09 10:33:48;;;;;;;18.63;7.90;;;19.30;99.90;;;;;;5061996;28;20051;-74
2022/07/09 10:36:15;;;;;;;11.30;1.85;;;19.10;99.90;;;;;;5055002;28;20471;-75
2022/07/09 10:38:55;;;;;;;8.77;2.00;;;19.00;99.90;;;;;;5067815;28;20037;-74
2022/07/09 10:41:24;;;;;;;8.43;1.73;;;18.80;99.90;;;;;;5060104;28;20044;-74
2022/07/09 10:43:52;;;;;;;11.52;2.75;;;18.80;99.90;;;;;;5059820;28;20052;-75
2022/07/09 10:46:18;;;;;;;11.63;1.52;;;19.60;99.90;;;;;;5060344;28;20032;-75
2022/07/09 10:48:45;;;;;;;8.48;1.65;;;18.70;99.90;;;;;;5039572;28;20052;-75
2022/07/09 10:51:22;;;;;;;9.77;1.33;;;18.60;99.90;;;;;;5045081;28;20044;-75
2022/07/09 10:53:48;;;;;;;11.18;3.53;;;18.60;99.90;;;;;;5051836;28;20048;-75
2022/07/09 10:56:18;;;;;;;13.68;2.90;;;18.60;99.90;;;;;;5062441;28;20050;-75
2022/07/09 10:58:49;;;;;;;7.65;1.95;;;18.60;99.90;;;;;;5052134;28;20041;-75
2022/07/09 11:01:24;;;;;;;12.13;3.08;;;18.90;99.90;;;;;;5069325;28;20086;-74
2022/07/09 11:03:51;;;;;;;15.80;6.78;;;18.80;99.90;;;;;;5052357;28;20048;-76
2022/07/09 11:06:17;;;;;;;11.82;5.00;;;18.50;99.90;;;;;;5070756;28;20032;-76
2022/07/09 11:08:46;;;;;;;11.75;2.28;;;19.40;99.90;;;;;;5069726;28;20050;-75
2022/07/09 11:11:12;;;;;;;5.63;1.65;;;18.50;99.90;;;;;;5060434;28;20124;-76
2022/07/09 11:13:37;;;;;;;6.75;1.10;;;18.50;99.90;;;;;;5070760;28;20086;-74
2022/07/09 11:16:04;;;;;;;3.95;1.05;;;19.00;99.90;;;;;;5066317;28;20045;-74
2022/07/09 11:18:30;;;;;;;4.32;1.38;;;18.60;99.90;;;;;;5062143;28;20090;-75
2022/07/09 11:20:55;;;;;;;12.55;1.35;;;18.70;99.90;;;;;;5069895;28;20041;-76
2022/07/09 11:23:21;;;;;;;8.63;1.02;;;19.40;99.90;;;;;;5069944;28;20048;-75
2022/07/09 11:25:47;;;;;;;10.45;0.80;;;18.80;99.90;;;;;;5056647;28;20047;-75
2022/07/09 11:28:21;;;;;;;6.50;0.88;;;18.90;99.90;;;;;;5058593;28;20040;-75
2022/07/09 11:30:57;;;;;;;5.78;0.70;;;19.00;99.90;;;;;;5064812;28;20112;-75
2022/07/09 11:33:24;;;;;;;5.82;0.80;;;19.20;99.90;;;;;;5065584;28;20529;-78
2022/07/09 11:35:50;;;;;;;6.18;0.82;;;19.20;99.90;;;;;;5068705;28;20037;-76
2022/07/09 11:38:15;;;;;;;3.58;0.90;;;19.30;99.90;;;;;;5066336;28;20103;-75
2022/07/09 11:40:41;;;;;;;5.32;0.70;;;19.40;99.90;;;;;;5061544;28;20495;-75
2022/07/09 11:43:15;;;;;;;10.80;1.17;;;19.50;99.90;;;;;;5070952;28;20389;-75
2022/07/09 11:45:53;;;;;;;4.38;0.90;;;20.00;99.90;;;;;;5056369;28;20227;-74
2022/07/09 11:48:18;;;;;;;3.33;0.82;;;20.50;99.90;;;;;;5050721;28;20107;-75
2022/07/09 11:50:45;;;;;;;3.33;0.55;;;19.80;99.90;;;;;;5050965;28;20500;-75
2022/07/09 11:53:27;;;;;;;5.45;0.88;;;19.90;99.90;;;;;;5061983;28;20052;-75
2022/07/09 11:56:04;;;;;;;3.45;0.73;;;20.00;99.90;;;;;;5055454;28;20048;-75
2022/07/09 11:58:30;;;;;;;124.97;13.15;;;20.10;99.90;;;;;;5068084;28;20044;-75
2022/07/09 12:00:56;;;;;;;4.22;1.13;;;20.50;99.90;;;;;;5051140;28;21014;-75
2022/07/09 12:03:30;;;;;;;3.53;0.60;;;20.30;99.90;;;;;;5060462;28;20037;-75
2022/07/09 12:05:55;;;;;;;5.78;1.80;;;20.40;99.90;;;;;;5060624;28;20044;-75
2022/07/09 12:08:29;;;;;;;4.13;1.45;;;20.40;99.90;;;;;;5061272;28;20399;-75
2022/07/09 12:10:56;;;;;;;9.48;1.20;;;20.50;99.90;;;;;;5059011;28;20037;-76
2022/07/09 12:13:22;;;;;;;3.25;0.47;;;20.60;99.90;;;;;;5062082;28;20232;-75
2022/07/09 12:15:47;;;;;;;7.20;0.75;;;20.70;99.90;;;;;;5036912;28;20131;-75
2022/07/09 12:18:13;;;;;;;1.67;0.35;;;20.70;99.90;;;;;;5050364;28;20079;-75
2022/07/09 12:20:39;;;;;;;5.68;0.95;;;20.80;99.90;;;;;;5060738;28;20052;-75
2022/07/09 12:23:05;;;;;;;6.05;0.90;;;20.90;99.90;;;;;;5066173;28;20111;-75
2022/07/09 12:25:31;;;;;;;3.15;0.60;;;21.00;99.90;;;;;;5058158;28;20048;-75
2022/07/09 12:27:57;;;;;;;5.30;1.10;;;20.90;99.90;;;;;;5056071;28;20050;-74
2022/07/09 12:30:22;;;;;;;5.10;0.90;;;20.90;99.90;;;;;;5059522;28;20048;-75
2022/07/09 12:32:49;;;;;;;6.00;0.65;;;20.80;99.90;;;;;;5053325;28;20032;-75
2022/07/09 12:35:15;;;;;;;3.42;0.70;;;20.70;99.90;;;;;;5057451;28;20679;-74
2022/07/09 12:37:41;;;;;;;4.13;0.80;;;20.80;99.90;;;;;;5050748;28;20510;-75
2022/07/09 12:40:09;;;;;;;2.42;0.60;;;20.80;99.90;;;;;;5068264;28;20048;-74